createdAt,value
2019-03-22T00:00:36.023Z,189.20
2019-03-22T00:10:42.677Z,192.67
2019-03-22T00:20:48.441Z,167.97
2019-03-22T00:30:53.973Z,169.80
2019-03-22T00:40:59.487Z,163.40
2019-03-22T00:51:05.010Z,181.40
2019-03-22T01:01:10.698Z,189.27
2019-03-22T01:11:16.474Z,175.37
2019-03-22T01:21:21.997Z,155.90
2019-03-22T01:31:27.634Z,186.13
2019-03-22T01:41:33.226Z,189.90
2019-03-22T01:51:38.792Z,193.83
2019-03-22T02:01:44.282Z,190.47
2019-03-22T02:11:49.793Z,189.80
2019-03-22T02:21:55.435Z,195.20
2019-03-22T02:32:01.072Z,159.63
2019-03-22T02:42:06.680Z,143.57
2019-03-22T02:52:12.285Z,141.40
2019-03-22T03:02:17.790Z,132.73
2019-03-22T03:12:23.370Z,129.87
2019-03-22T03:22:28.936Z,129.83
2019-03-22T03:32:34.571Z,128.10
2019-03-22T03:42:40.195Z,141.60
2019-03-22T03:52:45.819Z,142.97
2019-03-22T04:02:51.437Z,122.40
2019-03-22T04:12:57.057Z,128.77
2019-03-22T04:23:02.763Z,142.37
2019-03-22T04:33:09.756Z,149.37
2019-03-22T04:43:15.329Z,150.20
2019-03-22T04:53:24.138Z,117.13
2019-03-22T05:03:30.716Z,114.97
2019-03-22T05:13:38.048Z,122.17
2019-03-22T05:23:44.986Z,126.77
2019-03-22T05:33:50.540Z,128.57
2019-03-22T05:44:02.457Z,127.73
2019-03-22T05:54:07.959Z,131.87
2019-03-22T06:04:13.597Z,120.77
2019-03-22T06:14:19.210Z,116.77
2019-03-22T06:24:24.756Z,124.63
2019-03-22T06:34:30.402Z,124.13
2019-03-22T06:44:36.611Z,130.63
2019-03-22T06:54:42.155Z,183.57
2019-03-22T07:04:47.716Z,147.50
2019-03-22T07:15:00.379Z,163.73
2019-03-22T07:25:07.360Z,161.00
2019-03-22T07:35:12.983Z,163.40
2019-03-22T07:45:18.578Z,97.27
2019-03-22T07:55:24.190Z,107.07
2019-03-22T08:05:36.755Z,98.37
2019-03-22T08:15:43.434Z,105.20
2019-03-22T08:25:49.313Z,96.43
2019-03-22T08:35:55.175Z,121.67
2019-03-22T08:46:00.811Z,107.33
2019-03-22T08:56:07.146Z,108.93
2019-03-22T09:06:12.832Z,91.30
2019-03-22T09:16:18.523Z,92.97
2019-03-22T09:26:24.137Z,87.90
2019-03-22T09:36:29.735Z,75.27
2019-03-22T09:46:35.455Z,78.37
2019-03-22T09:56:46.969Z,85.07
2019-03-22T10:06:48.376Z,78.30
2019-03-22T10:16:53.932Z,89.63
2019-03-22T10:26:59.521Z,79.13
2019-03-22T10:37:05.187Z,66.73
2019-03-22T10:47:10.820Z,63.30
2019-03-22T10:57:17.432Z,63.70
2019-03-22T11:07:22.960Z,73.50
2019-03-22T11:17:28.531Z,52.53
2019-03-22T11:27:34.075Z,69.17
2019-03-22T11:48:22.001Z,65.87
2019-03-22T11:58:27.556Z,71.73
2019-03-22T12:08:33.159Z,60.43
2019-03-22T12:18:38.659Z,60.90
2019-03-22T12:28:44.186Z,60.03
2019-03-22T12:38:49.345Z,61.63
2019-03-22T12:48:54.760Z,65.90
2019-03-22T12:59:00.336Z,61.77
2019-03-22T13:09:08.325Z,60.77
2019-03-22T13:19:13.839Z,65.07
2019-03-22T13:29:19.437Z,69.00
2019-03-22T13:39:25.034Z,73.37
2019-03-22T13:49:30.566Z,79.90
2019-03-22T13:59:36.122Z,72.40
2019-03-22T14:09:41.676Z,85.50
2019-03-22T14:19:55.789Z,86.30
2019-03-22T14:30:02.387Z,93.13
2019-03-22T14:40:15.573Z,102.23
2019-03-22T14:50:27.362Z,124.77
2019-03-22T15:00:43.237Z,94.30
2019-03-22T15:10:48.761Z,106.23
2019-03-22T15:21:14.068Z,89.63
2019-03-22T15:31:39.015Z,85.07
2019-03-22T15:41:50.092Z,84.27
2019-03-22T15:51:55.574Z,103.83
2019-03-22T16:02:01.114Z,81.77
2019-03-22T16:12:06.861Z,83.70
2019-03-22T16:22:12.489Z,109.63
2019-03-22T16:42:55.235Z,108.20
2019-03-22T16:53:06.358Z,130.43
2019-03-22T17:03:11.957Z,86.47
2019-03-22T17:13:18.565Z,121.57
2019-03-22T17:23:24.320Z,116.53
2019-03-22T17:33:30.188Z,111.47
2019-03-22T17:54:26.710Z,96.60
2019-03-22T18:04:38.117Z,118.60
2019-03-22T18:14:44.147Z,150.40
2019-03-22T18:24:56.535Z,123.93
2019-03-22T18:35:08.718Z,154.33
2019-03-22T18:45:29.721Z,144.47
2019-03-22T18:55:36.399Z,223.40
2019-03-22T19:05:44.011Z,301.90
2019-03-22T19:15:51.205Z,348.70
2019-03-22T19:26:00.739Z,299.63
2019-03-22T19:36:10.735Z,362.00
2019-03-22T19:46:18.647Z,415.60
2019-03-22T19:56:26.165Z,323.93
2019-03-22T20:06:35.253Z,318.33
2019-03-22T20:16:41.330Z,333.77
2019-03-22T20:26:48.676Z,361.87
2019-03-22T20:36:54.920Z,348.17
2019-03-22T20:47:02.681Z,320.67
2019-03-22T20:57:09.714Z,296.80
2019-03-22T21:07:16.390Z,324.07
2019-03-22T21:17:22.435Z,285.37
2019-03-22T21:27:29.516Z,319.30
2019-03-22T21:37:35.298Z,325.53
2019-03-22T21:47:41.295Z,283.47
2019-03-22T21:57:46.974Z,255.10
2019-03-22T22:07:52.761Z,277.00
2019-03-22T22:17:58.412Z,342.83
2019-03-22T22:28:04.105Z,264.60
2019-03-22T22:38:09.669Z,230.53
2019-03-22T22:48:15.466Z,264.17
2019-03-22T22:58:21.024Z,249.93
2019-03-22T23:08:26.705Z,222.27
2019-03-22T23:18:32.319Z,182.33
2019-03-22T23:28:39.955Z,206.07
2019-03-22T23:38:45.687Z,206.00
2019-03-22T23:48:51.385Z,194.43
2019-03-22T23:58:56.889Z,203.17
